Time;durP1;ratioP1;P1;durP2;ratioP2;P2;SDS_P1;SDS_P2;PMS_P1;PMS_P2;Temp;Humidity;BMP_temperature;BMP_pressure;BME280_temperature;BME280_humidity;BME280_pressure;Samples;Min_cycle;Max_cycle;Signal;HPM_P1;HPM_P2
2022/03/17 00:00:16;;;;;;;9.13;4.75;;;;;;;-142.75;100.00;77678.69;5031605;28;20021;-67
2022/03/17 00:02:42;;;;;;;13.82;7.18;;;;;;;-142.75;100.00;77676.72;5032733;28;20049;-68
2022/03/17 00:05:10;;;;;;;8.15;4.57;;;;;;;-142.75;100.00;77670.81;5032638;28;20056;-68
2022/03/17 00:07:38;;;;;;;8.70;3.90;;;;;;;-142.75;100.00;77676.72;5032700;28;20029;-67
2022/03/17 00:10:09;;;;;;;11.82;6.65;;;;;;;-142.75;100.00;77680.66;5032249;28;20037;-67
2022/03/17 00:12:35;;;;;;;12.48;8.15;;;;;;;-142.75;100.00;77668.84;5031339;28;20376;-67
2022/03/17 00:15:00;;;;;;;7.32;3.70;;;;;;;-142.75;100.00;77674.75;5031074;28;20067;-68
2022/03/17 00:17:26;;;;;;;7.82;5.15;;;;;;;-142.75;100.00;77670.81;5031106;28;20041;-67
2022/03/17 00:19:52;;;;;;;;;;;;;;;-142.75;100.00;77662.94;5032545;28;20108;-66
2022/03/17 00:22:18;;;;;;;8.55;4.65;;;;;;;-142.75;100.00;77657.03;5032439;28;20070;-67
2022/03/17 00:24:54;;;;;;;8.00;3.58;;;;;;;-142.75;100.00;77647.19;5030747;28;20026;-67
2022/03/17 00:27:19;;;;;;;7.07;4.07;;;;;;;-142.75;100.00;77641.28;5032759;28;20014;-67
2022/03/17 00:29:44;;;;;;;7.23;4.00;;;;;;;-142.75;100.00;77653.09;5031343;28;20037;-67
2022/03/17 00:32:09;;;;;;;10.05;3.60;;;;;;;-142.75;100.00;77637.34;5032329;28;20268;-67
2022/03/17 00:35:35;;;;;;;7.47;3.60;;;;;;;-142.75;100.00;77641.28;5031968;28;20017;-67
2022/03/17 00:37:24;;;;;;;8.77;3.83;;;;;;;-142.75;100.00;77643.25;5032590;28;20095;-68
2022/03/17 00:39:50;;;;;;;;;;;;;;;-142.75;100.00;77635.38;5032200;28;20021;-67
2022/03/17 00:42:16;;;;;;;9.40;5.03;;;;;;;-142.75;100.00;77641.28;5031887;28;19920;-67
2022/03/17 00:44:42;;;;;;;7.82;4.38;;;;;;;-142.75;100.00;77629.47;5030464;28;20025;-67
2022/03/17 00:47:07;;;;;;;8.18;4.22;;;;;;;-142.75;100.00;77629.47;5031932;28;20025;-68
2022/03/17 00:49:32;;;;;;;12.98;4.90;;;;;;;-142.75;100.00;77633.41;5031433;28;20022;-67
2022/03/17 00:51:58;;;;;;;11.82;5.10;;;;;;;-142.75;100.00;77631.44;5030628;28;20025;-67
2022/03/17 00:54:23;;;;;;;7.57;4.18;;;;;;;-142.75;100.00;77627.50;5031805;28;20014;-66
2022/03/17 00:56:48;;;;;;;6.95;3.58;;;;;;;-142.75;100.00;77629.47;5032597;28;20031;-68
2022/03/17 00:59:14;;;;;;;7.80;4.63;;;;;;;-142.75;100.00;77637.34;5030205;28;20427;-66
2022/03/17 01:01:39;;;;;;;16.67;6.53;;;;;;;-142.75;100.00;77633.41;5012007;28;20036;-67
2022/03/17 01:04:05;;;;;;;9.35;4.75;;;;;;;-142.75;100.00;77637.34;5010593;28;20022;-67
2022/03/17 01:06:30;;;;;;;6.80;4.00;;;;;;;-142.75;100.00;77651.13;5011762;28;20022;-67
2022/03/17 01:08:55;;;;;;;7.40;4.18;;;;;;;-142.75;100.00;77657.03;5011435;28;20497;-66
2022/03/17 01:11:20;;;;;;;9.30;4.72;;;;;;;-142.75;100.00;77666.88;5011740;28;20080;-67
2022/03/17 01:13:46;;;;;;;10.13;4.75;;;;;;;-142.75;100.00;77676.72;5010584;28;20056;-67
2022/03/17 01:16:11;;;;;;;13.27;5.32;;;;;;;-142.75;100.00;77682.63;5011636;28;20029;-67
2022/03/17 01:18:36;;;;;;;9.68;4.88;;;;;;;-142.75;100.00;77690.50;5010263;28;20061;-67
2022/03/17 01:21:02;;;;;;;7.88;4.50;;;;;;;-142.75;100.00;77688.53;5020326;28;20120;-67
2022/03/17 01:23:27;;;;;;;11.88;5.13;;;;;;;-142.75;100.00;77692.47;5031126;28;20025;-67
2022/03/17 01:25:52;;;;;;;11.93;5.82;;;;;;;-142.75;100.00;77696.41;5031102;28;20026;-67
2022/03/17 01:28:18;;;;;;;10.65;5.20;;;;;;;-142.75;100.00;77696.41;5031138;28;20435;-68
2022/03/17 01:30:43;;;;;;;14.95;5.65;;;;;;;-142.75;100.00;77696.41;5031119;28;20527;-67
2022/03/17 01:33:08;;;;;;;13.02;5.68;;;;;;;-142.75;100.00;77702.31;5030972;28;20467;-67
2022/03/17 01:35:34;;;;;;;10.38;5.38;;;;;;;-142.75;100.00;77712.16;5029565;28;20026;-67
2022/03/17 01:37:59;;;;;;;10.23;6.00;;;;;;;-142.75;100.00;77723.97;5030492;28;20029;-67
2022/03/17 01:40:24;;;;;;;10.63;5.70;;;;;;;-142.75;100.00;77720.03;5029594;28;20026;-67
2022/03/17 01:42:50;;;;;;;20.80;7.28;;;;;;;-142.75;100.00;77720.03;5030893;28;20037;-67
2022/03/17 01:45:16;;;;;;;12.85;6.28;;;;;;;-142.75;100.00;77720.03;5030658;28;20108;-68
2022/03/17 01:47:43;;;;;;;11.38;5.85;;;;;;;-142.75;100.00;77725.97;5027199;28;20075;-67
2022/03/17 01:50:13;;;;;;;11.75;5.60;;;;;;;-142.75;100.00;77729.88;5009552;28;20084;-67
2022/03/17 01:52:39;;;;;;;10.98;5.75;;;;;;;-142.75;100.00;77727.94;5011147;28;20026;-67
2022/03/17 01:55:05;;;;;;;12.95;5.70;;;;;;;-142.75;100.00;77735.81;5010992;28;20105;-68
2022/03/17 01:57:31;;;;;;;9.00;4.65;;;;;;;-142.75;100.00;77745.66;5011500;28;20431;-67
2022/03/17 01:59:58;;;;;;;12.60;5.95;;;;;;;-142.75;100.00;77753.53;5009587;28;20088;-68
2022/03/17 02:02:24;;;;;;;8.63;5.20;;;;;;;-142.75;100.00;77767.31;5010701;28;20076;-67
2022/03/17 02:04:49;;;;;;;;;;;;;;;-142.75;100.00;77783.06;5010950;28;20034;-67
2022/03/17 02:07:15;;;;;;;8.95;3.83;;;;;;;-142.75;100.00;77788.97;5009452;28;19913;-67
2022/03/17 02:09:41;;;;;;;;;;;;;;;-142.75;100.00;77802.75;5010862;28;20057;-67
2022/03/17 02:14:53;;;;;;;5.57;3.15;;;;;;;-142.75;100.00;77867.72;5010799;28;20049;-67
2022/03/17 02:17:19;;;;;;;5.25;2.90;;;;;;;-142.75;100.00;77893.31;5010517;28;20029;-67
2022/03/17 02:19:45;;;;;;;5.40;3.15;;;;;;;-142.75;100.00;77952.41;5008939;28;20059;-67
2022/03/17 02:22:15;;;;;;;5.55;1.30;;;;;;;-142.75;100.00;77981.94;5010365;28;20033;-66
2022/03/17 02:27:29;;;;;;;2.88;1.50;;;;;;;-142.75;100.00;78046.91;5010687;28;20689;-66
2022/03/17 02:29:55;;;;;;;2.72;1.67;;;;;;;-142.75;100.00;78052.81;5009016;28;20083;-67
2022/03/17 02:32:20;;;;;;;5.30;0.73;;;;;;;-142.75;100.00;78062.69;5010349;28;20029;-66
2022/03/17 02:34:46;;;;;;;2.08;1.02;;;;;;;-142.75;100.00;78074.50;5008731;28;20038;-65
2022/03/17 02:37:15;;;;;;;2.05;1.25;;;;;;;-142.75;100.00;78084.34;5009004;28;20029;-66
2022/03/17 02:39:42;;;;;;;2.07;1.13;;;;;;;-142.75;100.00;78086.31;5008594;28;20052;-66
2022/03/17 02:42:08;;;;;;;2.97;1.27;;;;;;;-142.75;100.00;78098.13;5008861;28;20030;-66
2022/03/17 02:44:34;;;;;;;1.65;1.02;;;;;;;-142.75;100.00;78106.00;5010054;28;20022;-65
2022/03/17 02:46:59;;;;;;;3.97;2.30;;;;;;;-142.75;100.00;78113.88;5009959;28;20018;-66
2022/03/17 02:49:26;;;;;;;2.75;1.58;;;;;;;-142.75;100.00;78115.84;5009893;28;20068;-65
2022/03/17 02:51:53;;;;;;;3.17;1.53;;;;;;;-142.75;100.00;78117.81;5010171;28;20029;-66
2022/03/17 02:54:19;;;;;;;4.90;1.90;;;;;;;-142.75;100.00;78123.72;5009293;28;20021;-66
2022/03/17 02:56:44;;;;;;;4.60;2.80;;;;;;;-142.75;100.00;78129.63;5010252;28;20049;-66
2022/03/17 02:59:09;;;;;;;4.63;2.25;;;;;;;-142.75;100.00;78133.56;5009875;28;20502;-66
2022/03/17 03:01:35;;;;;;;3.72;2.58;;;;;;;-142.75;100.00;78139.47;5009808;28;20033;-67
2022/03/17 03:04:00;;;;;;;6.22;3.38;;;;;;;-142.75;100.00;78159.16;5009819;28;20523;-66
2022/03/17 03:06:25;;;;;;;6.60;2.83;;;;;;;-142.75;100.00;78153.25;5008422;28;20037;-66
2022/03/17 03:08:50;;;;;;;6.35;3.13;;;;;;;-142.75;100.00;78157.19;5009471;28;20024;-65
2022/03/17 03:11:16;;;;;;;2.85;1.42;;;;;;;-142.75;100.00;78172.94;5009710;28;20458;-66
2022/03/17 03:13:42;;;;;;;3.90;2.20;;;;;;;-142.75;100.00;78184.78;5009677;28;20032;-65
2022/03/17 03:16:07;;;;;;;5.43;2.27;;;;;;;-142.75;100.00;78200.53;5009621;28;20041;-66
2022/03/17 03:18:33;;;;;;;4.53;2.30;;;;;;;-142.75;100.00;78206.44;5009558;28;20060;-66
2022/03/17 03:20:58;;;;;;;6.97;2.85;;;;;;;-142.75;100.00;78222.19;5015136;28;20033;-64
2022/03/17 03:23:23;;;;;;;3.33;1.92;;;;;;;-142.75;100.00;78220.22;5029170;28;20021;-65
2022/03/17 03:25:49;;;;;;;8.30;2.80;;;;;;;-142.75;100.00;78234.00;5028979;28;20447;-66
2022/03/17 03:28:14;;;;;;;5.82;2.55;;;;;;;-142.75;100.00;78243.84;5029528;28;20025;-66
2022/03/17 03:30:39;;;;;;;5.47;3.10;;;;;;;-142.75;100.00;78243.84;5027899;28;20061;-65
2022/03/17 03:33:07;;;;;;;3.65;2.40;;;;;;;-142.75;100.00;78245.81;5027882;28;20036;-66
2022/03/17 03:38:18;;;;;;;5.60;1.40;;;;;;;-142.75;100.00;78287.16;5055974;22;20130;-67
2022/03/17 03:40:44;;;;;;;1.77;0.93;;;;;;;-142.75;100.00;78299.00;5047499;28;20407;-67
2022/03/17 03:43:10;;;;;;;1.63;0.80;;;;;;;-142.75;100.00;78299.00;5048681;28;20025;-67
2022/03/17 03:45:35;;;;;;;1.95;1.30;;;;;;;-142.75;100.00;78299.00;5049099;28;20231;-67
2022/03/17 03:48:00;;;;;;;1.67;1.00;;;;;;;-142.75;100.00;78322.63;5048617;28;20441;-66
2022/03/17 03:50:26;;;;;;;1.75;0.75;;;;;;;-142.75;100.00;78332.47;5049192;28;20033;-67
2022/03/17 03:52:51;;;;;;;1.95;0.65;;;;;;;-142.75;100.00;78350.19;5049179;28;20102;-67
2022/03/17 03:55:16;;;;;;;1.13;0.75;;;;;;;-142.75;100.00;78346.25;5049124;28;20148;-66
2022/03/17 03:57:42;;;;;;;2.58;1.13;;;;;;;-142.75;100.00;78348.22;5049413;28;20455;-66
2022/03/17 04:02:52;;;;;;;2.03;0.40;;;;;;;-142.75;100.00;78369.88;5049248;28;20456;-66
2022/03/17 04:05:19;;;;;;;0.40;0.30;;;;;;;-142.75;100.00;78381.69;5050403;28;20029;-66
2022/03/17 04:07:45;;;;;;;1.37;1.07;;;;;;;-142.75;100.00;78375.78;5052533;28;20021;-67
2022/03/17 04:10:10;;;;;;;0.38;0.30;;;;;;;-142.75;100.00;78377.75;5052503;28;20021;-66
2022/03/17 04:12:36;;;;;;;1.27;0.40;;;;;;;-142.75;100.00;78381.69;5052626;28;20083;-67
2022/03/17 04:15:02;;;;;;;1.77;0.90;;;;;;;-142.75;100.00;78385.63;5052376;28;20021;-66
2022/03/17 04:17:27;;;;;;;2.60;0.65;;;;;;;-142.75;100.00;78391.53;5052500;28;20025;-66
2022/03/17 04:19:53;;;;;;;1.23;0.60;;;;;;;-142.75;100.00;78391.53;5052451;28;20522;-66
2022/03/17 04:22:19;;;;;;;0.87;0.60;;;;;;;-142.75;100.00;78401.38;5051023;28;20033;-66
2022/03/17 04:24:44;;;;;;;0.60;0.50;;;;;;;-142.75;100.00;78397.44;5052463;28;20032;-66
2022/03/17 04:27:09;;;;;;;1.90;0.53;;;;;;;-142.75;100.00;78401.38;5052831;28;20279;-66
2022/03/17 04:29:34;;;;;;;2.53;0.73;;;;;;;-142.75;100.00;78405.34;5052009;28;20374;-66
2022/03/17 04:32:00;;;;;;;0.70;0.30;;;;;;;-142.75;100.00;78421.09;5052081;28;20036;-66
2022/03/17 04:34:25;;;;;;;0.30;0.30;;;;;;;-142.75;100.00;78419.13;5052207;28;20040;-66
2022/03/17 04:36:51;;;;;;;4.03;0.70;;;;;;;-142.75;100.00;78436.84;5052228;28;20787;-66
2022/03/17 04:39:16;;;;;;;0.60;0.45;;;;;;;-142.75;100.00;78432.91;5050532;28;20282;-67
2022/03/17 04:41:42;;;;;;;1.38;0.57;;;;;;;-142.75;100.00;78460.47;5051944;28;20029;-65
2022/03/17 04:44:10;;;;;;;0.32;0.20;;;;;;;-142.75;100.00;78476.22;5051985;28;20036;-66
2022/03/17 04:46:36;;;;;;;1.60;0.80;;;;;;;-142.75;100.00;78488.03;5052055;28;20387;-66
2022/03/17 04:49:02;;;;;;;0.70;0.65;;;;;;;-142.75;100.00;78499.88;5050749;28;20017;-66
2022/03/17 04:51:28;;;;;;;0.60;0.30;;;;;;;-142.75;100.00;78505.78;5051718;28;20027;-66
2022/03/17 04:53:53;;;;;;;0.77;0.38;;;;;;;-142.75;100.00;78511.69;5051988;28;20013;-66
2022/03/17 04:56:19;;;;;;;1.43;0.57;;;;;;;-142.75;100.00;78507.75;5051848;28;20024;-66
2022/03/17 04:58:45;;;;;;;0.20;0.20;;;;;;;-142.75;100.00;78509.72;5051760;28;20399;-66
2022/03/17 05:01:12;;;;;;;0.60;0.30;;;;;;;-142.75;100.00;78513.66;5051889;28;20052;-66
2022/03/17 05:03:38;;;;;;;0.93;0.40;;;;;;;-142.75;100.00;78511.69;5051360;28;20035;-67
2022/03/17 05:06:03;;;;;;;;;;;;;;;-142.75;100.00;78521.53;5052023;28;20048;-66
2022/03/17 05:08:29;;;;;;;0.67;0.30;;;;;;;-142.75;100.00;78533.34;5051439;28;19951;-66
2022/03/17 05:10:55;;;;;;;0.30;0.22;;;;;;;-142.75;100.00;78535.31;5050205;28;20460;-66
2022/03/17 05:13:22;;;;;;;0.73;0.40;;;;;;;-142.75;100.00;78555.00;5030552;28;20029;-65
2022/03/17 05:15:48;;;;;;;1.90;0.60;;;;;;;-142.75;100.00;78560.91;5031131;28;20025;-66
2022/03/17 05:18:14;;;;;;;;;;;;;;;-142.75;100.00;78568.78;5031456;28;20116;-67
2022/03/17 05:20:43;;;;;;;0.87;0.47;;;;;;;-142.75;100.00;78564.84;5031416;28;20419;-66
2022/03/17 05:23:10;;;;;;;0.40;0.30;;;;;;;-142.75;100.00;78578.63;5031643;28;20103;-66
2022/03/17 05:25:38;;;;;;;0.57;0.30;;;;;;;-142.75;100.00;78588.50;5030166;28;20056;-66
2022/03/17 05:28:04;;;;;;;0.30;0.20;;;;;;;-142.75;100.00;78594.41;5030289;28;20018;-66
2022/03/17 05:30:29;;;;;;;0.30;0.30;;;;;;;-142.75;100.00;78598.34;5031446;28;20415;-66
2022/03/17 05:32:55;;;;;;;0.80;0.37;;;;;;;-142.75;100.00;78614.09;5032577;28;20021;-66
2022/03/17 05:35:20;;;;;;;0.30;0.20;;;;;;;-142.75;100.00;78625.91;5032366;28;20275;-67
2022/03/17 05:37:46;;;;;;;0.20;0.20;;;;;;;-142.75;100.00;78629.84;5030946;28;20029;-66
2022/03/17 05:40:15;;;;;;;0.35;0.30;;;;;;;-142.75;100.00;78637.72;5031129;28;20029;-66
2022/03/17 05:42:42;;;;;;;0.30;0.27;;;;;;;-142.75;100.00;78639.69;5032377;28;20033;-66
2022/03/17 05:45:08;;;;;;;0.50;0.40;;;;;;;-142.75;100.00;78641.66;5032119;28;20446;-66
2022/03/17 05:47:41;;;;;;;;;;;;;;;-142.75;100.00;78643.63;5032444;28;20029;-66
2022/03/17 05:50:09;;;;;;;0.57;0.27;;;;;;;-142.75;100.00;78649.53;5031844;28;19921;-67
2022/03/17 05:52:35;;;;;;;0.37;0.33;;;;;;;-142.75;100.00;78659.38;5032285;28;20031;-66
2022/03/17 05:55:01;;;;;;;;;;;;;;;-142.75;100.00;78657.41;5031365;28;20025;-67
2022/03/17 05:57:26;;;;;;;2.77;0.67;;;;;;;-142.75;100.00;78679.09;5032423;28;19964;-66
2022/03/17 05:59:51;;;;;;;0.80;0.80;;;;;;;-142.75;100.00;78671.22;5031678;28;20061;-66
2022/03/17 06:02:16;;;;;;;0.50;0.30;;;;;;;-142.75;100.00;78669.25;5032571;28;20025;-67
2022/03/17 06:04:42;;;;;;;1.75;0.60;;;;;;;-142.75;100.00;78669.25;5031905;28;20294;-66
2022/03/17 06:07:07;;;;;;;1.45;0.73;;;;;;;-142.75;100.00;78681.06;5031859;28;20022;-66
2022/03/17 06:09:33;;;;;;;0.20;0.20;;;;;;;-142.75;100.00;78683.03;5031500;28;20028;-66
2022/03/17 06:11:59;;;;;;;2.50;0.60;;;;;;;-142.75;100.00;78673.19;5031739;28;20026;-66
2022/03/17 06:14:26;;;;;;;2.58;0.65;;;;;;;-142.75;100.00;78683.03;5031749;28;20394;-66
2022/03/17 06:16:52;;;;;;;1.20;0.57;;;;;;;-142.75;100.00;78688.94;5031617;28;20526;-66
2022/03/17 06:19:17;;;;;;;0.30;0.30;;;;;;;-142.75;100.00;78696.81;5031413;28;20021;-66
2022/03/17 06:21:43;;;;;;;0.77;0.30;;;;;;;-142.75;100.00;78690.91;5030356;28;20025;-65
2022/03/17 06:24:08;;;;;;;0.57;0.35;;;;;;;-142.75;100.00;78685.00;5031543;28;20068;-66
2022/03/17 06:26:33;;;;;;;3.15;0.40;;;;;;;-142.75;100.00;78690.91;5031617;28;20044;-66
2022/03/17 06:28:59;;;;;;;3.85;0.50;;;;;;;-142.75;100.00;78696.81;5029325;28;20013;-66
2022/03/17 06:31:24;;;;;;;1.63;0.47;;;;;;;-142.75;100.00;78696.81;5031444;28;20029;-66
2022/03/17 06:33:49;;;;;;;0.80;0.40;;;;;;;-142.75;100.00;78696.81;5030016;28;20072;-66
2022/03/17 06:36:15;;;;;;;1.38;0.38;;;;;;;-142.75;100.00;78698.78;5031510;28;20022;-66
2022/03/17 06:38:40;;;;;;;2.17;0.40;;;;;;;-142.75;100.00;78700.75;5030777;28;20060;-66
2022/03/17 06:41:05;;;;;;;1.02;0.65;;;;;;;-142.75;100.00;78696.81;5031398;28;20025;-66
2022/03/17 06:43:30;;;;;;;0.75;0.35;;;;;;;-142.75;100.00;78700.75;5031255;28;20036;-67
2022/03/17 06:45:56;;;;;;;1.25;0.57;;;;;;;-142.75;100.00;78704.69;5031242;28;20433;-66
2022/03/17 06:48:21;;;;;;;2.67;0.70;;;;;;;-142.75;100.00;78714.53;5030926;28;20083;-66
2022/03/17 06:50:46;;;;;;;1.40;0.30;;;;;;;-142.75;100.00;78714.53;5031078;28;20032;-66
2022/03/17 06:53:11;;;;;;;2.97;1.10;;;;;;;-142.75;100.00;78734.22;5029963;28;20403;-66
2022/03/17 06:55:37;;;;;;;1.40;0.90;;;;;;;-142.75;100.00;78732.25;5031044;28;20483;-66
2022/03/17 06:58:03;;;;;;;1.15;1.00;;;;;;;-142.75;100.00;78750.00;5030596;28;20115;-65
2022/03/17 07:00:28;;;;;;;0.65;0.25;;;;;;;-142.75;100.00;78753.94;5030784;28;20033;-67
2022/03/17 07:02:54;;;;;;;0.30;0.20;;;;;;;-142.75;100.00;78751.97;5030833;28;20052;-66
2022/03/17 07:05:19;;;;;;;0.43;0.43;;;;;;;-142.75;100.00;78748.03;5029351;28;20037;-66
2022/03/17 07:07:45;;;;;;;0.55;0.35;;;;;;;-142.75;100.00;78740.13;5029406;28;20025;-66
2022/03/17 07:10:13;;;;;;;0.70;0.27;;;;;;;-142.75;100.00;78744.09;5029174;28;20104;-66
2022/03/17 07:12:41;;;;;;;1.20;0.37;;;;;;;-142.75;100.00;78751.97;5029810;28;20021;-66
2022/03/17 07:15:07;;;;;;;0.47;0.40;;;;;;;-142.75;100.00;78751.97;5029665;28;20450;-66
2022/03/17 07:17:39;;;;;;;1.57;0.67;;;;;;;-142.75;100.00;78746.03;5029732;28;20483;-66
2022/03/17 07:20:09;;;;;;;0.17;0.17;;;;;;;-142.75;100.00;78746.03;5029383;28;20083;-66
2022/03/17 07:22:35;;;;;;;1.70;1.53;;;;;;;-142.75;100.00;78732.25;5031761;28;20017;-65
2022/03/17 07:25:00;;;;;;;0.20;0.20;;;;;;;-142.75;100.00;78740.13;5033757;28;20079;-66
2022/03/17 07:27:27;;;;;;;1.67;0.60;;;;;;;-142.75;100.00;78744.09;5029662;28;20053;-66
2022/03/17 07:29:52;;;;;;;1.45;0.50;;;;;;;-142.75;100.00;78738.16;5029152;28;20498;-66
2022/03/17 07:32:24;;;;;;;2.45;0.47;;;;;;;-142.75;100.00;78750.00;5029553;28;20075;-65
2022/03/17 07:34:50;;;;;;;5.40;0.67;;;;;;;-142.75;100.00;78750.00;5029699;28;20498;-66
2022/03/17 07:37:16;;;;;;;0.98;0.30;;;;;;;-142.75;100.00;78757.88;5029550;28;20025;-65
2022/03/17 07:39:42;;;;;;;0.30;0.20;;;;;;;-142.75;100.00;78769.69;5031476;28;20414;-65
2022/03/17 07:42:08;;;;;;;1.00;0.40;;;;;;;-142.75;100.00;78771.66;5033396;28;20041;-66
2022/03/17 07:44:36;;;;;;;0.95;0.30;;;;;;;-142.75;100.00;78783.47;5033371;28;20087;-66
2022/03/17 07:47:02;;;;;;;1.97;0.37;;;;;;;-142.75;100.00;78785.44;5033702;28;20692;-65
2022/03/17 07:49:28;;;;;;;0.40;0.40;;;;;;;-142.75;100.00;78791.34;5049350;28;20017;-65
2022/03/17 07:51:54;;;;;;;1.25;1.02;;;;;;;-142.75;100.00;78797.25;5040779;28;20842;-65
2022/03/17 07:54:20;;;;;;;0.30;0.30;;;;;;;-142.75;100.00;78791.34;5033496;28;20033;-66
2022/03/17 07:56:45;;;;;;;1.42;0.47;;;;;;;-142.75;100.00;78799.22;5032559;28;20110;-66
2022/03/17 07:59:10;;;;;;;1.85;0.45;;;;;;;-142.75;100.00;78814.97;5032810;28;20055;-66
2022/03/17 08:01:36;;;;;;;1.27;0.85;;;;;;;-142.75;100.00;78811.03;5039480;28;20036;-65
2022/03/17 08:04:01;;;;;;;1.48;0.80;;;;;;;-142.75;100.00;78822.88;5046254;28;20391;-66
2022/03/17 08:06:27;;;;;;;0.40;0.30;;;;;;;-142.75;100.00;78840.59;5032207;28;20061;-66
2022/03/17 08:08:52;;;;;;;3.17;0.32;;;;;;;-142.75;100.00;78830.75;5040453;28;20266;-66
2022/03/17 08:11:17;;;;;;;0.45;0.40;;;;;;;-142.75;100.00;78832.72;5035991;28;20072;-65
2022/03/17 08:13:43;;;;;;;0.60;0.30;;;;;;;-142.75;100.00;78840.59;5033256;28;20049;-67
2022/03/17 08:16:10;;;;;;;0.20;0.20;;;;;;;-142.75;100.00;78830.75;5032300;28;20100;-65
2022/03/17 08:18:36;;;;;;;0.87;0.43;;;;;;;-142.75;100.00;78844.53;5041663;28;20033;-65
2022/03/17 08:21:01;;;;;;;0.60;0.60;;;;;;;-142.75;100.00;78856.34;5052970;28;20086;-65
2022/03/17 08:23:26;;;;;;;0.10;0.10;;;;;;;-142.75;100.00;78858.31;5034765;28;20061;-66
2022/03/17 08:25:52;;;;;;;0.95;0.32;;;;;;;-142.75;100.00;78868.16;5043722;28;20025;-65
2022/03/17 08:28:18;;;;;;;1.05;0.70;;;;;;;-142.75;100.00;78866.19;5052849;28;20186;-66
2022/03/17 08:30:48;;;;;;;0.77;0.47;;;;;;;-142.75;100.00;78862.25;5055743;28;20037;-64
2022/03/17 08:33:15;;;;;;;0.50;0.30;;;;;;;-142.75;100.00;78874.06;5054497;28;20031;-64
2022/03/17 08:35:41;;;;;;;1.20;0.50;;;;;;;-142.75;100.00;78870.13;5044266;28;20017;-64
2022/03/17 08:38:07;;;;;;;0.60;0.40;;;;;;;-142.75;100.00;78751.97;5035412;28;20406;-65
2022/03/17 08:40:33;;;;;;;0.50;0.40;;;;;;;-142.75;100.00;78669.25;5037301;28;20067;-65
2022/03/17 08:42:58;;;;;;;;;;;;;;;-142.75;100.00;78594.41;5042750;28;20057;-65
2022/03/17 08:50:51;;;;;;;0.37;0.27;;;;;;;-142.75;100.00;78511.69;5052480;28;20040;-64
2022/03/17 08:53:17;;;;;;;1.65;0.93;;;;;;;-142.75;100.00;78515.63;5041670;28;20025;-65
2022/03/17 08:55:42;;;;;;;0.20;0.20;;;;;;;-142.75;100.00;78555.00;5034039;28;20522;-65
2022/03/17 08:58:07;;;;;;;0.40;0.20;;;;;;;-142.75;100.00;78493.97;5044148;28;20024;-67
2022/03/17 09:00:34;;;;;;;2.95;1.05;;;;;;;-142.75;100.00;78446.69;5033268;28;20025;-67
2022/03/17 09:03:04;;;;;;;4.18;0.52;;;;;;;-142.75;100.00;78413.22;5033993;28;20031;-67
2022/03/17 09:05:33;;;;;;;1.08;0.30;;;;;;;-142.75;100.00;78452.59;5033848;28;20021;-67
2022/03/17 09:07:59;;;;;;;0.38;0.35;;;;;;;-142.75;100.00;78521.53;5038956;28;20039;-66
2022/03/17 09:10:24;;;;;;;0.98;0.40;;;;;;;-142.75;100.00;78568.78;5033896;28;20025;-68
2022/03/17 09:12:55;;;;;;;0.60;0.43;;;;;;;-142.75;100.00;78517.59;5031825;28;20017;-67
2022/03/17 09:15:21;;;;;;;1.15;0.30;;;;;;;-142.75;100.00;78472.28;5031682;28;20029;-67
2022/03/17 09:17:47;;;;;;;0.40;0.30;;;;;;;-142.75;100.00;78413.22;5032982;28;20032;-67
2022/03/17 09:20:13;;;;;;;0.38;0.30;;;;;;;-142.75;100.00;78391.53;5032889;28;20033;-67
2022/03/17 09:22:38;;;;;;;0.43;0.30;;;;;;;-142.75;100.00;78375.78;5033036;28;20029;-67
2022/03/17 09:25:05;;;;;;;0.47;0.30;;;;;;;-142.75;100.00;78354.13;5033070;28;20116;-67
2022/03/17 09:27:30;;;;;;;1.33;0.40;;;;;;;-142.75;100.00;78395.47;5033312;28;20422;-68
2022/03/17 09:29:55;;;;;;;0.40;0.30;;;;;;;-142.75;100.00;78363.97;5032538;28;20037;-67
2022/03/17 09:32:21;;;;;;;0.43;0.32;;;;;;;-142.75;100.00;78326.56;5032934;28;20029;-67
2022/03/17 09:34:46;;;;;;;3.05;0.65;;;;;;;-142.75;100.00;78397.44;5033053;28;20176;-67
2022/03/17 09:37:12;;;;;;;0.98;0.35;;;;;;;-142.75;100.00;78409.28;5032907;28;20018;-67
2022/03/17 09:39:45;;;;;;;2.78;0.82;;;;;;;-142.75;100.00;78350.19;5036346;28;20041;-67
2022/03/17 09:42:11;;;;;;;1.23;0.47;;;;;;;-142.75;100.00;78259.59;5032675;28;20077;-67
2022/03/17 09:44:36;;;;;;;0.80;0.28;;;;;;;-142.75;100.00;78186.75;5033761;28;20091;-67
2022/03/17 09:47:03;;;;;;;0.40;0.35;;;;;;;-142.75;100.00;78200.53;5050366;22;20049;-68
2022/03/17 09:49:29;;;;;;;0.80;0.43;;;;;;;-142.75;100.00;78271.41;4990299;28;20392;-69
2022/03/17 09:51:57;;;;;;;;;;;;;;;-142.75;100.00;78247.78;4992165;28;20022;-69
2022/03/17 09:54:22;;;;;;;;;;;;;;;-142.75;100.00;78241.88;4993051;28;19997;-69
2022/03/17 09:56:47;;;;;;;0.45;0.30;;;;;;;-142.75;100.00;78208.41;4992470;28;20000;-68
2022/03/17 09:59:13;;;;;;;1.10;0.30;;;;;;;-142.75;100.00;78239.91;4992025;28;20102;-68
2022/03/17 10:01:38;;;;;;;1.27;0.60;;;;;;;-142.75;100.00;78269.44;4990794;28;20412;-67
2022/03/17 10:04:06;;;;;;;1.88;0.50;;;;;;;-142.75;100.00;78235.97;4990346;28;20507;-70
2022/03/17 10:06:32;;;;;;;0.40;0.20;;;;;;;-142.75;100.00;78220.22;4991101;28;20463;-69
2022/03/17 10:08:58;;;;;;;0.32;0.20;;;;;;;-142.75;100.00;78275.34;4992259;28;20030;-71
2022/03/17 10:11:26;;;;;;;1.13;0.40;;;;;;;-142.75;100.00;78310.81;4992023;28;20027;-67
2022/03/17 10:13:54;;;;;;;0.85;0.47;;;;;;;-142.75;100.00;78350.19;4990404;28;20034;-70
2022/03/17 10:16:21;;;;;;;0.52;0.30;;;;;;;-142.75;100.00;78243.84;4992217;28;20041;-69
2022/03/17 10:19:00;;;;;;;0.70;0.32;;;;;;;-142.75;100.00;78153.25;4991753;28;20092;-68
2022/03/17 10:21:27;;;;;;;2.70;0.28;;;;;;;-142.75;100.00;78121.75;5006177;28;20026;-68
2022/03/17 10:24:00;;;;;;;1.65;0.43;;;;;;;-142.75;100.00;78123.72;4991836;28;20092;-67
2022/03/17 10:26:54;;;;;;;3.05;0.52;;;;;;;-142.75;100.00;78078.44;4990625;28;20030;-70
2022/03/17 10:29:26;;;;;;;2.70;0.75;;;;;;;-142.75;100.00;78261.56;4987794;28;20046;-68
2022/03/17 10:31:52;;;;;;;0.65;0.30;;;;;;;-142.75;100.00;78247.78;4989701;28;20038;-68
2022/03/17 10:34:19;;;;;;;0.85;0.50;;;;;;;-142.75;100.00;78188.72;4990746;28;20023;-66
2022/03/17 10:36:48;;;;;;;0.88;0.40;;;;;;;-142.75;100.00;78155.22;4991888;28;20113;-68
2022/03/17 10:39:15;;;;;;;1.80;0.65;;;;;;;-142.75;100.00;78161.13;4991603;28;20026;-68
2022/03/17 10:41:42;;;;;;;1.05;0.50;;;;;;;-142.75;100.00;78145.38;4990412;28;20138;-70
2022/03/17 10:44:12;;;;;;;3.13;0.50;;;;;;;-142.75;100.00;78176.88;4991762;28;20031;-69
2022/03/17 10:46:38;;;;;;;0.73;0.40;;;;;;;-142.75;100.00;78178.84;4991603;28;20096;-66
2022/03/17 10:49:08;;;;;;;1.77;0.50;;;;;;;-142.75;100.00;78117.81;4990767;28;20026;-67
2022/03/17 10:51:38;;;;;;;1.38;0.38;;;;;;;-142.75;100.00;78094.19;4990434;28;20037;-68
2022/03/17 10:54:11;;;;;;;1.50;0.52;;;;;;;-142.75;98.64;78046.91;4990436;28;20576;-72
2022/03/17 10:56:38;;;;;;;1.00;0.40;;;;;;;-142.75;95.25;78017.38;4990329;28;20037;-69
2022/03/17 10:59:05;;;;;;;3.38;0.73;;;;;;;-142.75;92.61;78013.44;4991141;28;20030;-69
2022/03/17 11:01:45;;;;;;;1.30;0.70;;;;;;;-142.75;95.22;78046.91;4990816;28;20514;-70
2022/03/17 11:04:11;;;;;;;2.13;0.40;;;;;;;-142.75;95.03;78078.44;4987746;28;20571;-69
2022/03/17 11:06:38;;;;;;;1.23;0.57;;;;;;;-142.75;88.80;78131.59;4991100;28;20026;-68
2022/03/17 11:09:05;;;;;;;0.52;0.32;;;;;;;-142.75;94.18;78161.13;4991208;28;20057;-71
2022/03/17 11:11:30;;;;;;;3.47;0.60;;;;;;;-142.75;97.16;78131.59;4991473;28;20092;-70
2022/03/17 11:13:58;;;;;;;3.35;0.40;;;;;;;-142.75;95.10;78188.72;4991240;28;20037;-68
2022/03/17 11:16:46;;;;;;;0.95;0.38;;;;;;;-142.75;94.71;78220.22;4991358;28;20088;-68
2022/03/17 11:19:16;;;;;;;0.45;0.20;;;;;;;-142.75;98.17;78285.19;4991150;28;20014;-68
2022/03/17 11:21:46;;;;;;;2.80;0.50;;;;;;;-142.75;97.84;78249.75;4991080;28;20392;-69
2022/03/17 11:24:19;;;;;;;3.00;0.35;;;;;;;-142.75;94.30;78161.13;4991063;28;20550;-68